Time;durP1;ratioP1;P1;durP2;ratioP2;P2;SDS_P1;SDS_P2;PMS_P1;PMS_P2;Temp;Humidity;BMP_temperature;BMP_pressure;BME280_temperature;BME280_humidity;BME280_pressure;Samples;Min_cycle;Max_cycle;Signal;HPM_P1;HPM_P2
2021/12/12 00:02:44;;;;;;;41.90;20.03;;;3.90;99.90;;;;;;5057171;28;20965;-75
2021/12/12 00:05:13;;;;;;;43.10;18.87;;;3.90;99.90;;;;;;5052763;28;20642;-75
2021/12/12 00:07:42;;;;;;;43.50;19.53;;;3.80;99.90;;;;;;5053701;28;20650;-77
2021/12/12 00:10:15;;;;;;;41.67;19.90;;;3.70;99.90;;;;;;5052750;28;20621;-74
2021/12/12 00:12:48;;;;;;;38.13;19.43;;;3.70;99.90;;;;;;5057260;28;20582;-77
2021/12/12 00:15:16;;;;;;;46.27;20.93;;;3.70;99.90;;;;;;5053340;28;20641;-75
2021/12/12 00:17:44;;;;;;;42.93;19.27;;;3.80;99.90;;;;;;5052568;28;20659;-75
2021/12/12 00:20:13;;;;;;;45.10;19.40;;;3.70;99.90;;;;;;5053405;28;20821;-75
2021/12/12 00:22:39;;;;;;;46.73;19.70;;;3.70;99.90;;;;;;5054269;28;20601;-75
2021/12/12 00:25:07;;;;;;;40.33;19.97;;;3.70;99.90;;;;;;5043624;28;20676;-78
2021/12/12 00:27:33;;;;;;;42.53;20.20;;;3.80;99.90;;;;;;5073712;28;20246;-75
2021/12/12 00:30:03;;;;;;;47.10;22.00;;;3.80;99.90;;;;;;5041948;28;20606;-75
2021/12/12 00:32:31;;;;;;;42.00;20.50;;;3.80;99.90;;;;;;5039360;28;20241;-75
2021/12/12 00:35:01;;;;;;;42.53;19.03;;;3.80;99.90;;;;;;5057383;28;21107;-75
2021/12/12 00:37:28;;;;;;;40.40;18.73;;;3.80;99.90;;;;;;5038571;28;21294;-75
2021/12/12 00:39:59;;;;;;;41.03;19.63;;;3.80;99.90;;;;;;5057417;28;20987;-75
2021/12/12 00:42:32;;;;;;;47.83;19.73;;;3.80;99.90;;;;;;5056426;28;20613;-74
2021/12/12 00:45:01;;;;;;;44.10;20.03;;;3.80;99.90;;;;;;5055841;28;20634;-77
2021/12/12 00:47:26;;;;;;;39.73;19.90;;;3.90;99.90;;;;;;5020058;28;21311;-75
2021/12/12 00:49:53;;;;;;;34.77;18.47;;;3.90;99.90;;;;;;5058438;28;20621;-75
2021/12/12 00:52:20;;;;;;;42.60;18.80;;;3.80;99.90;;;;;;5054247;28;20198;-75
2021/12/12 00:54:47;;;;;;;36.43;18.53;;;3.90;99.90;;;;;;5056184;28;20666;-75
2021/12/12 00:57:17;;;;;;;33.07;17.80;;;3.90;99.90;;;;;;5055876;28;20654;-75
2021/12/12 00:59:45;;;;;;;39.03;20.00;;;3.90;99.90;;;;;;5053285;28;20667;-75
2021/12/12 01:02:20;;;;;;;38.90;18.33;;;4.00;99.90;;;;;;5053596;28;20618;-75
2021/12/12 01:04:50;;;;;;;36.93;18.00;;;3.90;99.90;;;;;;5052623;28;20638;-77
2021/12/12 01:07:24;;;;;;;46.47;19.70;;;4.00;99.90;;;;;;5051685;28;21239;-74
2021/12/12 01:09:54;;;;;;;36.20;18.63;;;4.00;99.90;;;;;;5037121;28;21213;-74
2021/12/12 01:12:25;;;;;;;40.47;19.03;;;4.00;99.90;;;;;;5036477;28;20671;-75
2021/12/12 01:14:55;;;;;;;40.00;18.83;;;3.90;99.90;;;;;;5050700;28;20626;-75
2021/12/12 01:17:38;;;;;;;36.10;18.07;;;3.90;99.90;;;;;;5053151;28;21258;-75
2021/12/12 01:20:20;;;;;;;41.07;18.40;;;4.00;99.90;;;;;;5051671;28;20581;-75
2021/12/12 01:22:48;;;;;;;40.50;19.23;;;4.00;99.90;;;;;;5038085;28;21209;-75
2021/12/12 01:25:21;;;;;;;38.10;18.53;;;4.00;99.90;;;;;;5050927;28;20649;-75
2021/12/12 01:27:49;;;;;;;40.60;18.57;;;4.00;99.90;;;;;;5054559;28;21346;-75
2021/12/12 01:30:16;;;;;;;40.07;17.97;;;4.00;99.90;;;;;;5033707;28;20611;-74
2021/12/12 01:32:44;;;;;;;36.70;18.30;;;4.10;99.90;;;;;;5048672;28;20625;-75
2021/12/12 01:35:15;;;;;;;38.00;17.80;;;4.10;99.90;;;;;;5054244;28;20708;-75
2021/12/12 01:37:51;;;;;;;35.77;19.37;;;4.10;99.90;;;;;;5051826;28;20638;-75
2021/12/12 01:40:26;;;;;;;33.23;17.67;;;4.10;99.90;;;;;;5052039;28;20587;-74
2021/12/12 01:43:03;;;;;;;32.67;18.50;;;4.10;99.90;;;;;;5052667;28;20582;-74
2021/12/12 01:45:39;;;;;;;38.43;18.30;;;4.10;99.90;;;;;;5051308;28;20646;-75
2021/12/12 01:48:19;;;;;;;36.47;19.50;;;4.10;99.90;;;;;;5031060;28;20646;-74
2021/12/12 01:50:55;;;;;;;32.47;18.07;;;4.10;99.90;;;;;;5051676;28;21168;-75
2021/12/12 01:53:26;;;;;;;36.03;18.50;;;4.10;99.90;;;;;;5050971;28;20677;-75
2021/12/12 01:56:00;;;;;;;36.73;17.50;;;4.00;99.90;;;;;;5053569;28;20623;-74
2021/12/12 01:58:29;;;;;;;39.80;19.17;;;4.10;99.90;;;;;;5052938;28;20632;-75
2021/12/12 02:01:19;;;;;;;37.97;19.47;;;4.10;99.90;;;;;;5052258;28;20607;-74
2021/12/12 02:03:52;;;;;;;32.20;18.30;;;4.10;99.90;;;;;;5035609;28;20707;-75
2021/12/12 02:06:19;;;;;;;34.27;18.13;;;4.20;99.90;;;;;;5035786;28;20684;-75
2021/12/12 02:08:49;;;;;;;39.20;18.17;;;4.20;99.90;;;;;;5052291;28;21330;-77
2021/12/12 02:11:19;;;;;;;38.07;19.40;;;4.20;99.90;;;;;;5035975;28;20620;-75
2021/12/12 02:13:50;;;;;;;33.60;18.17;;;4.20;99.90;;;;;;5052373;28;20664;-75
2021/12/12 02:16:17;;;;;;;36.03;17.93;;;4.30;99.90;;;;;;5034334;28;20786;-75
2021/12/12 02:18:50;;;;;;;34.00;19.07;;;4.30;99.90;;;;;;5052587;28;20634;-75
2021/12/12 02:21:55;;;;;;;38.27;18.20;;;4.30;99.90;;;;;;5052899;28;20598;-74
2021/12/12 02:35:06;;;;;;;36.13;17.50;;;4.30;99.90;;;;;;5608095;22;21236;-75
2021/12/12 02:35:43;;;;;;;34.50;18.03;;;4.10;99.90;;;;;;5025648;28;20638;-75
2021/12/12 02:38:13;;;;;;;35.47;18.07;;;4.20;99.90;;;;;;5030209;28;20776;-75
2021/12/12 02:40:44;;;;;;;40.77;17.70;;;4.20;99.90;;;;;;5028241;28;20627;-75
2021/12/12 02:43:19;;;;;;;33.23;17.23;;;4.20;99.90;;;;;;5026318;28;20608;-75
2021/12/12 02:45:45;;;;;;;35.30;18.60;;;4.20;99.90;;;;;;5023955;28;20627;-75
2021/12/12 02:48:19;;;;;;;34.47;18.47;;;4.20;99.90;;;;;;5012502;28;20722;-75
2021/12/12 02:50:48;;;;;;;34.63;17.90;;;4.30;99.90;;;;;;5025519;28;20607;-74
2021/12/12 02:53:22;;;;;;;34.07;18.20;;;4.30;99.90;;;;;;5024676;28;20638;-75
2021/12/12 02:55:55;;;;;;;30.93;17.03;;;4.40;99.90;;;;;;5022855;28;20644;-74
2021/12/12 02:58:22;;;;;;;31.10;18.10;;;4.40;99.90;;;;;;5024065;28;20652;-75
2021/12/12 03:01:08;;;;;;;31.03;17.27;;;4.40;99.90;;;;;;5027764;28;20608;-75
2021/12/12 03:03:37;;;;;;;32.13;17.40;;;4.50;99.90;;;;;;5030203;28;20604;-75
2021/12/12 03:06:04;;;;;;;28.97;16.90;;;4.50;99.90;;;;;;5027459;28;20650;-74
2021/12/12 03:08:31;;;;;;;30.87;16.67;;;4.50;99.90;;;;;;5004617;28;20614;-75
2021/12/12 03:10:57;;;;;;;31.03;18.23;;;4.50;99.90;;;;;;5028489;28;20798;-75
2021/12/12 03:13:24;;;;;;;33.97;17.67;;;4.50;99.90;;;;;;5011007;28;20664;-76
2021/12/12 03:15:52;;;;;;;28.70;16.20;;;4.50;99.90;;;;;;5002789;28;20773;-75
2021/12/12 03:18:25;;;;;;;28.63;16.67;;;4.50;99.90;;;;;;5019638;28;20639;-75
2021/12/12 03:20:55;;;;;;;30.87;17.57;;;4.60;99.90;;;;;;5028015;28;20622;-75
2021/12/12 03:23:27;;;;;;;31.50;16.73;;;4.60;99.90;;;;;;5026827;28;20679;-75
2021/12/12 03:26:04;;;;;;;26.73;15.67;;;4.60;99.90;;;;;;5025627;28;20699;-75
2021/12/12 03:28:33;;;;;;;27.83;16.60;;;4.60;99.90;;;;;;5026020;28;20622;-75
2021/12/12 03:31:03;;;;;;;27.00;15.50;;;4.70;99.90;;;;;;5009919;28;20985;-77
2021/12/12 03:33:31;;;;;;;30.53;16.60;;;4.70;99.90;;;;;;5028500;28;20639;-74
2021/12/12 03:35:58;;;;;;;27.10;16.73;;;4.80;99.90;;;;;;5025780;28;20665;-75
2021/12/12 03:38:30;;;;;;;30.13;16.50;;;4.60;99.90;;;;;;5025769;28;20650;-77
2021/12/12 03:41:00;;;;;;;27.37;15.90;;;4.80;99.90;;;;;;5026743;28;20622;-75
2021/12/12 03:43:25;;;;;;;28.13;15.93;;;4.80;99.90;;;;;;5006779;28;21201;-75
2021/12/12 03:45:51;;;;;;;26.23;16.13;;;4.90;99.90;;;;;;5019244;28;20638;-75
2021/12/12 03:48:30;;;;;;;27.87;16.77;;;4.90;99.90;;;;;;5024540;28;20638;-75
2021/12/12 03:51:01;;;;;;;27.30;15.93;;;5.00;99.90;;;;;;5026396;28;20192;-75
2021/12/12 03:53:30;;;;;;;32.13;15.57;;;4.90;99.90;;;;;;5025677;28;20604;-77
2021/12/12 03:55:57;;;;;;;28.90;15.50;;;5.00;99.90;;;;;;5024784;28;20654;-75
2021/12/12 03:58:23;;;;;;;26.87;16.20;;;5.00;99.90;;;;;;5023821;28;20741;-75
2021/12/12 04:01:21;;;;;;;31.53;16.10;;;5.00;99.90;;;;;;5026820;28;21056;-75
2021/12/12 04:03:52;;;;;;;27.67;16.50;;;5.00;99.90;;;;;;5023212;28;20185;-74
2021/12/12 04:06:21;;;;;;;30.37;17.50;;;4.90;99.90;;;;;;5025081;28;20689;-75
2021/12/12 04:08:49;;;;;;;26.57;16.73;;;4.90;99.90;;;;;;5026433;28;20615;-74
2021/12/12 04:11:22;;;;;;;31.73;17.70;;;4.90;99.90;;;;;;5025079;28;20623;-75
2021/12/12 04:13:51;;;;;;;29.37;17.23;;;4.90;99.90;;;;;;5024664;28;21221;-74
2021/12/12 04:16:18;;;;;;;28.50;17.30;;;5.00;99.90;;;;;;5008299;28;20761;-75
2021/12/12 04:18:45;;;;;;;26.90;16.07;;;5.00;99.90;;;;;;5025721;28;20662;-75
2021/12/12 04:21:12;;;;;;;31.00;16.40;;;5.00;99.90;;;;;;5022894;28;20653;-74
2021/12/12 04:23:39;;;;;;;29.00;17.60;;;5.10;99.90;;;;;;5026403;28;20607;-74
2021/12/12 04:26:20;;;;;;;35.27;18.30;;;5.10;99.90;;;;;;5001603;28;20769;-74
2021/12/12 04:28:59;;;;;;;36.37;19.40;;;5.10;99.90;;;;;;5023857;28;20626;-74
2021/12/12 04:31:25;;;;;;;32.80;17.07;;;5.10;99.90;;;;;;5007735;28;20718;-75
2021/12/12 04:33:52;;;;;;;34.60;18.60;;;5.10;99.90;;;;;;5024589;28;21197;-76
2021/12/12 04:36:24;;;;;;;32.53;20.13;;;5.20;99.90;;;;;;5022388;28;21221;-76
2021/12/12 04:38:50;;;;;;;31.57;18.67;;;5.20;99.90;;;;;;5021845;28;20838;-75
2021/12/12 04:41:20;;;;;;;34.37;18.23;;;5.20;99.90;;;;;;5022230;28;20723;-74
2021/12/12 04:43:46;;;;;;;35.63;19.90;;;5.20;99.90;;;;;;5021713;28;20185;-75
2021/12/12 04:46:22;;;;;;;34.37;18.20;;;5.30;99.90;;;;;;5005506;28;20642;-75
2021/12/12 04:51:46;;;;;;;34.33;19.87;;;5.30;99.90;;;;;;5025390;28;21282;-75
2021/12/12 04:54:24;;;;;;;35.33;18.70;;;5.30;99.90;;;;;;5018043;28;20655;-75
2021/12/12 04:56:49;;;;;;;39.00;21.47;;;5.30;99.90;;;;;;5025444;28;21105;-75
2021/12/12 04:59:40;;;;;;;34.30;20.10;;;5.30;99.90;;;;;;5023856;28;20651;-75
2021/12/12 05:02:37;;;;;;;33.13;18.67;;;5.30;99.90;;;;;;5025928;28;20193;-75
2021/12/12 05:05:17;;;;;;;35.53;19.30;;;5.30;99.90;;;;;;5019260;28;21008;-75
2021/12/12 05:07:53;;;;;;;36.83;19.00;;;5.30;99.90;;;;;;5023851;28;20733;-75
2021/12/12 05:10:27;;;;;;;41.40;20.90;;;5.30;99.90;;;;;;5023875;28;20953;-75
2021/12/12 05:13:01;;;;;;;39.43;20.47;;;5.30;99.90;;;;;;5036509;28;20626;-74
2021/12/12 05:15:38;;;;;;;38.20;20.20;;;5.40;99.90;;;;;;5029045;28;20653;-75
2021/12/12 05:18:12;;;;;;;34.43;20.10;;;5.40;99.90;;;;;;5022888;28;21254;-74
2021/12/12 05:20:43;;;;;;;36.10;20.80;;;5.40;99.90;;;;;;5015815;28;20624;-75
2021/12/12 05:23:13;;;;;;;38.67;20.40;;;5.40;99.90;;;;;;5043601;28;20623;-75
2021/12/12 05:25:59;;;;;;;38.43;20.63;;;5.40;99.90;;;;;;5046800;28;20658;-75
2021/12/12 05:28:35;;;;;;;38.67;20.57;;;5.40;99.90;;;;;;5044473;28;20619;-75
2021/12/12 05:31:07;;;;;;;38.27;21.33;;;5.50;99.90;;;;;;5030935;28;20709;-75
2021/12/12 05:33:34;;;;;;;35.97;21.83;;;5.50;99.90;;;;;;5025839;28;20630;-75
2021/12/12 05:36:01;;;;;;;41.60;20.90;;;5.40;99.90;;;;;;5010005;28;20657;-75
2021/12/12 05:38:29;;;;;;;43.37;21.73;;;5.40;99.90;;;;;;5022867;28;20651;-75
2021/12/12 05:40:55;;;;;;;40.90;20.97;;;5.40;99.90;;;;;;5009681;28;20627;-74
2021/12/12 05:43:22;;;;;;;43.30;22.30;;;5.40;99.90;;;;;;5022149;28;20612;-75
2021/12/12 05:45:51;;;;;;;38.07;21.80;;;5.40;99.90;;;;;;5023841;28;20651;-75
2021/12/12 05:48:21;;;;;;;36.83;21.37;;;5.50;99.90;;;;;;5017118;28;20624;-75
2021/12/12 05:50:51;;;;;;;41.47;22.40;;;5.50;99.90;;;;;;5026974;28;20619;-75
2021/12/12 05:53:18;;;;;;;40.50;22.93;;;5.50;99.90;;;;;;5023138;28;20618;-74
2021/12/12 05:55:46;;;;;;;48.97;23.10;;;5.50;99.90;;;;;;5023850;28;20655;-74
2021/12/12 05:58:18;;;;;;;36.90;21.47;;;5.50;99.90;;;;;;5025001;28;20658;-75
2021/12/12 06:00:57;;;;;;;41.70;22.57;;;5.60;99.90;;;;;;5007767;28;20619;-74
2021/12/12 06:03:27;;;;;;;41.60;21.73;;;5.60;99.90;;;;;;5022439;28;20920;-74
2021/12/12 06:05:55;;;;;;;43.10;21.83;;;5.60;99.90;;;;;;5021093;28;20634;-74
2021/12/12 06:08:23;;;;;;;45.53;24.07;;;5.50;99.90;;;;;;5024036;28;20631;-75
2021/12/12 06:10:50;;;;;;;40.13;22.03;;;5.50;99.90;;;;;;5018712;28;20629;-74
2021/12/12 06:13:21;;;;;;;36.13;20.17;;;5.50;99.90;;;;;;5024163;28;23712;-75
2021/12/12 06:15:51;;;;;;;40.13;21.60;;;5.50;99.90;;;;;;5022628;28;20651;-75
2021/12/12 06:18:19;;;;;;;42.57;22.33;;;5.50;99.90;;;;;;5024682;28;20682;-75
2021/12/12 06:20:50;;;;;;;39.80;21.70;;;5.60;99.90;;;;;;5016163;28;20646;-75
2021/12/12 06:23:19;;;;;;;43.00;23.10;;;5.60;99.90;;;;;;5006881;28;20700;-75
2021/12/12 06:25:47;;;;;;;37.67;20.90;;;5.60;99.90;;;;;;5019655;28;20728;-75
2021/12/12 06:28:20;;;;;;;47.33;22.17;;;5.60;99.90;;;;;;5021219;28;20999;-75
2021/12/12 06:30:48;;;;;;;40.63;21.77;;;5.70;99.90;;;;;;5028941;28;20784;-75
2021/12/12 06:33:14;;;;;;;39.30;21.33;;;5.60;99.90;;;;;;5029311;28;20620;-74
2021/12/12 06:35:41;;;;;;;38.70;21.17;;;5.70;99.90;;;;;;5031373;28;20646;-75
2021/12/12 06:38:09;;;;;;;33.70;18.97;;;5.70;99.90;;;;;;5013729;28;20679;-75
2021/12/12 06:40:39;;;;;;;38.33;19.47;;;5.70;99.90;;;;;;5029930;28;20618;-74
2021/12/12 06:43:08;;;;;;;39.23;21.17;;;5.70;99.90;;;;;;5028811;28;20655;-75
2021/12/12 06:45:34;;;;;;;39.80;20.63;;;5.70;99.90;;;;;;5025267;28;21096;-75
2021/12/12 06:48:07;;;;;;;39.97;21.70;;;5.70;99.90;;;;;;5009659;28;20647;-75
2021/12/12 06:50:34;;;;;;;29.80;18.23;;;5.70;99.90;;;;;;5031425;28;20676;-75
2021/12/12 06:53:00;;;;;;;30.40;18.83;;;5.80;99.90;;;;;;5033224;28;21138;-75
2021/12/12 06:55:27;;;;;;;37.27;19.70;;;5.80;99.90;;;;;;5029095;28;20678;-74
2021/12/12 06:57:55;;;;;;;34.70;19.20;;;5.90;99.90;;;;;;5026158;28;21077;-74
2021/12/12 07:00:27;;;;;;;27.00;16.50;;;5.80;99.90;;;;;;5031298;28;21193;-74
2021/12/12 07:02:53;;;;;;;30.87;16.70;;;5.90;99.90;;;;;;5025019;28;20990;-74
2021/12/12 07:05:24;;;;;;;32.43;16.70;;;5.80;99.90;;;;;;5015984;28;20654;-75
2021/12/12 07:07:52;;;;;;;27.67;16.83;;;5.70;99.90;;;;;;5025700;28;20245;-74
2021/12/12 07:10:21;;;;;;;31.73;16.80;;;5.70;99.90;;;;;;5012238;28;20611;-74
2021/12/12 07:12:54;;;;;;;26.90;16.30;;;5.70;99.90;;;;;;5018364;28;20649;-74
2021/12/12 07:15:20;;;;;;;29.07;15.80;;;5.70;99.90;;;;;;5031649;28;20697;-75
2021/12/12 07:17:46;;;;;;;27.33;15.67;;;5.70;99.90;;;;;;5030345;28;21485;-75
2021/12/12 07:20:14;;;;;;;26.33;14.97;;;5.70;99.90;;;;;;5013912;28;20620;-74
2021/12/12 07:22:40;;;;;;;28.80;14.63;;;5.70;99.90;;;;;;5023276;28;20621;-75
2021/12/12 07:25:08;;;;;;;27.73;15.70;;;5.80;99.90;;;;;;5008465;28;20705;-74
2021/12/12 07:27:34;;;;;;;21.10;14.20;;;5.80;99.90;;;;;;5017047;28;20639;-75
2021/12/12 07:30:01;;;;;;;21.90;13.20;;;5.80;99.90;;;;;;5011211;28;20623;-74
2021/12/12 07:32:28;;;;;;;23.73;13.90;;;5.80;99.90;;;;;;5014302;28;20662;-74
2021/12/12 07:34:54;;;;;;;24.17;14.40;;;5.80;99.90;;;;;;5027686;28;20639;-74
2021/12/12 07:37:20;;;;;;;25.77;14.53;;;5.90;99.90;;;;;;5009608;28;20639;-74
2021/12/12 07:39:47;;;;;;;30.43;14.10;;;5.80;99.90;;;;;;5014250;28;20698;-74
2021/12/12 07:42:14;;;;;;;23.07;13.73;;;5.70;99.90;;;;;;5024253;28;20627;-74
2021/12/12 07:44:43;;;;;;;24.83;13.80;;;5.70;99.90;;;;;;5008069;28;20705;-75
2021/12/12 07:47:11;;;;;;;24.63;13.77;;;5.70;99.90;;;;;;5011282;28;20645;-75
2021/12/12 07:49:40;;;;;;;22.47;13.40;;;5.80;99.90;;;;;;5019731;28;20687;-74
2021/12/12 07:52:09;;;;;;;24.83;13.60;;;5.80;99.90;;;;;;5019403;28;20623;-74
2021/12/12 07:54:35;;;;;;;24.23;14.27;;;5.80;99.90;;;;;;5008817;28;20654;-74
2021/12/12 07:57:01;;;;;;;22.07;13.83;;;5.80;99.90;;;;;;5009446;28;20640;-75
2021/12/12 07:59:28;;;;;;;25.27;13.30;;;5.80;99.90;;;;;;5029182;28;20644;-75
2021/12/12 08:01:54;;;;;;;25.33;13.70;;;5.90;99.90;;;;;;5025725;28;20663;-75
2021/12/12 08:04:22;;;;;;;20.50;13.13;;;5.80;99.90;;;;;;5026501;28;21233;-74
2021/12/12 08:06:49;;;;;;;21.60;13.37;;;5.80;99.90;;;;;;5025603;28;20738;-74
2021/12/12 08:09:15;;;;;;;22.00;13.10;;;5.80;99.90;;;;;;5016968;28;20619;-74
2021/12/12 08:11:43;;;;;;;18.60;13.17;;;5.80;99.90;;;;;;5017588;28;20673;-74
2021/12/12 08:14:13;;;;;;;19.50;12.40;;;5.70;99.90;;;;;;5019651;28;20654;-74
2021/12/12 08:16:39;;;;;;;23.23;13.37;;;5.80;99.90;;;;;;5018901;28;20666;-75
2021/12/12 08:19:05;;;;;;;21.83;13.50;;;5.80;99.90;;;;;;5025381;28;20658;-75
2021/12/12 08:21:33;;;;;;;22.20;13.30;;;5.60;99.90;;;;;;5016337;28;21025;-74
2021/12/12 08:24:01;;;;;;;26.17;12.63;;;5.70;99.90;;;;;;5018260;28;20633;-74
2021/12/12 08:26:28;;;;;;;21.00;13.57;;;5.70;99.90;;;;;;5024151;28;20639;-74
2021/12/12 08:28:54;;;;;;;23.10;13.73;;;5.60;99.90;;;;;;5022016;28;20619;-74
2021/12/12 08:31:20;;;;;;;28.10;14.87;;;5.60;99.90;;;;;;5014101;28;20621;-74
2021/12/12 08:33:46;;;;;;;24.70;15.50;;;5.70;99.90;;;;;;5016482;28;20647;-76
2021/12/12 08:36:14;;;;;;;21.70;13.23;;;5.70;99.90;;;;;;5023408;28;20742;-74
2021/12/12 08:38:40;;;;;;;21.90;13.63;;;5.70;99.90;;;;;;5003064;28;20311;-74
2021/12/12 08:41:06;;;;;;;21.57;12.60;;;5.70;99.90;;;;;;5022298;28;20715;-74
2021/12/12 08:43:32;;;;;;;20.73;12.50;;;5.70;99.90;;;;;;5019018;28;20272;-74
2021/12/12 08:46:09;;;;;;;22.80;13.23;;;5.60;99.90;;;;;;5000774;28;20751;-74
2021/12/12 08:48:39;;;;;;;21.40;12.53;;;5.60;99.90;;;;;;5021341;28;20193;-75
2021/12/12 08:51:10;;;;;;;26.10;13.40;;;5.70;99.90;;;;;;5001996;28;20620;-73
2021/12/12 08:53:36;;;;;;;25.30;14.23;;;5.60;99.90;;;;;;4994963;28;20632;-73
2021/12/12 08:56:04;;;;;;;21.57;12.40;;;5.60;99.90;;;;;;5018285;28;20720;-73
2021/12/12 08:58:32;;;;;;;19.30;11.60;;;5.60;99.90;;;;;;5002907;28;20663;-74
2021/12/12 09:01:05;;;;;;;19.13;11.90;;;5.50;99.90;;;;;;5020664;28;20669;-75
2021/12/12 09:03:43;;;;;;;17.67;10.53;;;5.60;99.90;;;;;;5018170;28;20620;-75
2021/12/12 09:06:13;;;;;;;22.13;11.73;;;5.70;99.90;;;;;;5022283;28;20643;-75
2021/12/12 09:08:49;;;;;;;18.53;11.50;;;5.60;99.90;;;;;;5023396;28;20637;-75
2021/12/12 09:11:25;;;;;;;17.37;11.67;;;5.70;99.90;;;;;;5018747;28;21044;-75
2021/12/12 09:14:02;;;;;;;18.83;11.33;;;5.60;99.90;;;;;;5021581;28;20985;-75
2021/12/12 09:16:38;;;;;;;16.13;11.00;;;5.70;99.90;;;;;;5018242;28;20694;-74
2021/12/12 09:19:09;;;;;;;19.40;10.27;;;5.70;99.90;;;;;;5019990;28;20661;-75
2021/12/12 09:21:49;;;;;;;17.50;10.60;;;5.60;99.90;;;;;;5020543;28;20630;-75
2021/12/12 09:24:32;;;;;;;12.40;8.60;;;5.70;99.90;;;;;;5015190;28;20655;-74
2021/12/12 09:27:08;;;;;;;17.20;9.83;;;5.70;99.90;;;;;;5017823;28;20762;-76
2021/12/12 09:29:56;;;;;;;14.43;9.90;;;5.70;99.90;;;;;;5019117;28;21011;-75
2021/12/12 09:32:36;;;;;;;11.03;7.80;;;5.70;99.90;;;;;;5021286;28;20604;-75
2021/12/12 09:35:10;;;;;;;12.63;8.97;;;5.70;99.90;;;;;;5006153;28;20624;-75
2021/12/12 09:37:45;;;;;;;14.70;8.80;;;5.80;99.90;;;;;;5012645;28;21816;-75
2021/12/12 09:40:16;;;;;;;12.60;8.63;;;5.80;99.90;;;;;;5019903;28;20595;-75
2021/12/12 09:42:58;;;;;;;11.30;8.17;;;5.80;99.90;;;;;;5018015;28;20640;-75
2021/12/12 09:45:27;;;;;;;13.70;7.93;;;5.90;99.90;;;;;;5019373;28;20651;-76
2021/12/12 09:51:34;;;;;;;9.90;7.00;;;6.00;99.90;;;;;;5015357;28;20614;-75
2021/12/12 09:54:20;;;;;;;7.93;6.70;;;5.90;99.90;;;;;;4998974;28;20625;-75
2021/12/12 09:57:14;;;;;;;8.63;6.63;;;6.00;99.90;;;;;;5019091;28;20648;-75
2021/12/12 09:59:54;;;;;;;8.40;5.87;;;6.00;99.90;;;;;;5023626;28;20750;-75
2021/12/12 10:02:24;;;;;;;8.20;5.63;;;6.00;99.90;;;;;;5016886;28;20976;-75
2021/12/12 10:05:08;;;;;;;7.80;5.80;;;6.10;99.90;;;;;;4996678;28;20663;-75
2021/12/12 10:07:52;;;;;;;6.87;5.87;;;6.10;99.90;;;;;;5010504;28;20644;-75
2021/12/12 10:10:28;;;;;;;7.30;5.60;;;6.10;99.90;;;;;;5013228;28;20620;-75
2021/12/12 10:13:16;;;;;;;7.13;5.30;;;6.00;99.90;;;;;;5017005;28;21213;-75
2021/12/12 10:15:47;;;;;;;6.30;5.33;;;6.10;99.90;;;;;;5012604;28;20757;-75
2021/12/12 10:18:41;;;;;;;6.50;5.10;;;6.10;99.90;;;;;;5020281;28;20642;-75
2021/12/12 10:21:19;;;;;;;7.70;5.07;;;6.10;99.90;;;;;;5021514;28;20618;-75
2021/12/12 10:24:20;;;;;;;5.90;4.23;;;6.20;99.90;;;;;;5013804;28;20599;-75
2021/12/12 10:26:54;;;;;;;5.20;4.30;;;6.20;99.90;;;;;;5000578;28;20638;-75
2021/12/12 10:29:24;;;;;;;4.30;3.47;;;6.20;99.90;;;;;;5019043;28;20615;-75
2021/12/12 10:31:57;;;;;;;7.20;4.80;;;6.20;99.90;;;;;;5019566;28;20611;-75
2021/12/12 10:34:42;;;;;;;5.13;4.07;;;6.20;99.90;;;;;;5012475;28;21382;-75
2021/12/12 10:37:20;;;;;;;4.30;3.90;;;6.20;99.90;;;;;;5003135;28;20631;-75
2021/12/12 10:39:54;;;;;;;4.27;3.87;;;6.20;99.90;;;;;;5024804;28;20666;-75
2021/12/12 10:42:26;;;;;;;4.50;4.10;;;6.20;99.90;;;;;;5028257;28;20744;-75
2021/12/12 10:45:00;;;;;;;6.10;4.20;;;6.20;99.90;;;;;;5015081;28;20745;-75
2021/12/12 10:47:32;;;;;;;4.57;4.03;;;6.30;99.90;;;;;;5020290;28;20634;-75
2021/12/12 10:50:23;;;;;;;4.20;3.80;;;6.30;99.90;;;;;;5018379;28;21003;-75
2021/12/12 10:52:53;;;;;;;5.90;4.13;;;6.30;99.90;;;;;;5022542;28;20587;-75
2021/12/12 10:55:55;;;;;;;4.60;4.13;;;6.40;99.90;;;;;;5001787;28;20690;-75
2021/12/12 10:58:38;;;;;;;4.70;4.30;;;6.40;99.90;;;;;;4997833;28;20655;-75
2021/12/12 11:01:11;;;;;;;4.63;4.13;;;6.30;99.90;;;;;;5000677;28;20967;-75
2021/12/12 11:04:12;;;;;;;4.70;4.17;;;6.30;99.90;;;;;;4997518;28;20660;-75
2021/12/12 11:07:03;;;;;;;5.03;4.40;;;6.40;99.90;;;;;;5014118;28;20634;-75
2021/12/12 11:09:50;;;;;;;4.10;3.70;;;6.30;99.90;;;;;;5015801;28;20643;-75
2021/12/12 11:12:39;;;;;;;4.47;4.07;;;6.30;99.90;;;;;;5002725;28;20611;-75
2021/12/12 11:15:23;;;;;;;4.80;3.93;;;6.30;99.90;;;;;;4997231;28;20828;-75
2021/12/12 11:18:08;;;;;;;6.10;4.20;;;6.40;99.90;;;;;;5022910;28;20643;-75
2021/12/12 11:20:38;;;;;;;4.30;3.90;;;6.40;99.90;;;;;;5026918;28;20650;-75
2021/12/12 11:23:12;;;;;;;4.90;4.40;;;6.40;99.90;;;;;;5019775;28;20600;-75
2021/12/12 11:26:05;;;;;;;4.80;4.30;;;6.40;99.90;;;;;;5016565;28;21501;-74
2021/12/12 11:28:36;;;;;;;4.77;4.33;;;6.40;99.90;;;;;;5008157;28;21199;-74
2021/12/12 11:31:34;;;;;;;4.60;4.20;;;6.50;99.90;;;;;;5021974;28;21109;-75
2021/12/12 11:34:00;;;;;;;5.53;5.03;;;6.50;99.90;;;;;;5016480;28;21236;-75
2021/12/12 11:36:31;;;;;;;4.40;3.97;;;6.50;99.90;;;;;;5013828;28;21339;-74
2021/12/12 11:39:20;;;;;;;6.20;5.10;;;6.50;99.90;;;;;;5018570;28;20647;-75
2021/12/12 11:41:48;;;;;;;5.67;5.10;;;6.50;99.90;;;;;;5007921;28;20632;-75
2021/12/12 11:44:27;;;;;;;5.30;4.60;;;6.60;99.90;;;;;;5002408;28;21021;-75
2021/12/12 11:47:28;;;;;;;4.93;4.30;;;6.60;99.90;;;;;;5007572;28;21234;-75
2021/12/12 11:50:06;;;;;;;7.10;5.67;;;6.60;99.90;;;;;;4960207;28;21392;-75
2021/12/12 11:52:44;;;;;;;8.07;6.30;;;6.60;99.90;;;;;;5021043;28;21339;-75
2021/12/12 11:55:18;;;;;;;5.83;5.23;;;6.70;99.90;;;;;;5001947;28;20685;-75
2021/12/12 11:58:08;;;;;;;5.63;4.83;;;6.70;99.90;;;;;;5022453;28;20809;-75
2021/12/12 12:00:38;;;;;;;5.00;4.50;;;6.70;99.90;;;;;;5018846;28;20591;-75
2021/12/12 12:03:23;;;;;;;4.90;4.40;;;6.70;99.90;;;;;;5020342;28;21264;-76
2021/12/12 12:06:17;;;;;;;10.13;7.67;;;6.60;99.90;;;;;;5019283;28;21229;-75
2021/12/12 12:08:56;;;;;;;5.77;5.27;;;6.60;99.90;;;;;;5013486;28;20627;-75
2021/12/12 12:11:59;;;;;;;5.60;5.00;;;6.60;99.90;;;;;;5022618;28;21354;-75
2021/12/12 12:14:52;;;;;;;6.30;5.40;;;6.70;99.90;;;;;;5028228;28;20647;-75
2021/12/12 12:17:58;;;;;;;7.43;6.50;;;6.70;99.90;;;;;;5036397;28;20769;-74
2021/12/12 12:20:53;;;;;;;6.60;5.87;;;6.70;99.90;;;;;;5042574;28;20583;-74
2021/12/12 12:24:36;;;;;;;9.10;5.77;;;6.70;99.90;;;;;;5012597;28;22168;-75
2021/12/12 12:26:50;;;;;;;6.20;5.60;;;6.70;99.90;;;;;;5010141;28;20666;-74
2021/12/12 12:29:31;;;;;;;6.80;6.10;;;6.80;99.90;;;;;;5017364;28;20622;-75
2021/12/12 12:32:34;;;;;;;7.20;6.00;;;6.80;99.90;;;;;;5014375;28;20727;-75
2021/12/12 12:35:36;;;;;;;6.73;6.00;;;6.80;99.90;;;;;;5008585;28;20793;-75
2021/12/12 12:38:54;;;;;;;7.87;6.13;;;6.70;99.90;;;;;;5021472;28;20651;-74
2021/12/12 12:41:57;;;;;;;6.63;5.93;;;6.70;99.90;;;;;;5005348;28;20998;-74
2021/12/12 12:45:00;;;;;;;6.33;5.73;;;6.70;99.90;;;;;;5025516;28;20643;-75
2021/12/12 12:48:10;;;;;;;6.40;5.30;;;6.80;99.90;;;;;;5026089;28;20636;-75
2021/12/12 12:51:10;;;;;;;7.00;6.30;;;6.80;99.90;;;;;;5026188;28;20611;-75
2021/12/12 12:54:00;;;;;;;6.60;5.90;;;6.90;99.90;;;;;;5022679;28;20621;-75
2021/12/12 12:57:06;;;;;;;6.60;5.70;;;6.90;99.90;;;;;;5008078;28;20650;-75
2021/12/12 12:59:50;;;;;;;7.73;5.73;;;6.90;99.90;;;;;;5026028;28;20630;-74
2021/12/12 13:02:30;;;;;;;7.60;6.20;;;7.00;99.90;;;;;;5025221;28;20606;-74
2021/12/12 13:04:56;;;;;;;6.80;5.50;;;7.00;99.90;;;;;;5025997;28;20654;-74
2021/12/12 13:07:32;;;;;;;6.50;5.43;;;7.00;99.90;;;;;;5007058;28;20644;-74
2021/12/12 13:10:07;;;;;;;11.07;9.10;;;7.10;99.90;;;;;;5024848;28;20656;-74
2021/12/12 13:12:53;;;;;;;6.60;5.87;;;7.10;99.90;;;;;;5026439;28;20666;-75
2021/12/12 13:15:43;;;;;;;6.23;4.90;;;7.00;99.90;;;;;;5024457;28;20654;-74
2021/12/12 13:18:27;;;;;;;6.60;5.93;;;7.10;99.90;;;;;;5018879;28;20656;-75
2021/12/12 13:21:18;;;;;;;7.23;5.73;;;7.10;99.90;;;;;;5001528;28;20940;-75
2021/12/12 13:24:10;;;;;;;6.57;5.43;;;7.10;99.90;;;;;;5024986;28;20643;-74
2021/12/12 13:26:47;;;;;;;5.97;5.43;;;7.10;99.90;;;;;;5019291;28;20635;-75
2021/12/12 13:29:25;;;;;;;6.80;5.70;;;7.10;99.90;;;;;;5019172;28;20587;-74
2021/12/12 13:32:04;;;;;;;6.90;5.80;;;7.20;99.90;;;;;;5010258;28;20595;-74
2021/12/12 13:34:47;;;;;;;5.73;5.20;;;7.20;99.90;;;;;;5027772;28;20651;-75
2021/12/12 13:37:28;;;;;;;6.90;6.20;;;7.20;99.90;;;;;;5030663;28;20639;-74